sensor_id;sensor_type;location;lat;lon;timestamp;P1;durP1;ratioP1;P2;durP2;ratioP2
20073;SDS011;10197;54.282;10.078;2023-04-29T00:00:45;9.68;;;7.03;;
20073;SDS011;10197;54.282;10.078;2023-04-29T00:03:11;10.55;;;7.13;;
20073;SDS011;10197;54.282;10.078;2023-04-29T00:05:38;10.90;;;7.13;;
20073;SDS011;10197;54.282;10.078;2023-04-29T00:08:05;11.75;;;7.57;;
20073;SDS011;10197;54.282;10.078;2023-04-29T00:10:32;10.80;;;7.47;;
20073;SDS011;10197;54.282;10.078;2023-04-29T00:12:59;10.52;;;6.88;;
20073;SDS011;10197;54.282;10.078;2023-04-29T00:15:28;12.45;;;7.78;;
20073;SDS011;10197;54.282;10.078;2023-04-29T00:17:54;10.70;;;7.85;;
20073;SDS011;10197;54.282;10.078;2023-04-29T00:20:21;9.95;;;7.30;;
20073;SDS011;10197;54.282;10.078;2023-04-29T00:22:48;9.35;;;6.95;;
20073;SDS011;10197;54.282;10.078;2023-04-29T00:25:15;12.80;;;7.20;;
20073;SDS011;10197;54.282;10.078;2023-04-29T00:27:42;9.52;;;7.35;;
20073;SDS011;10197;54.282;10.078;2023-04-29T00:30:10;12.05;;;7.13;;
20073;SDS011;10197;54.282;10.078;2023-04-29T00:32:38;10.07;;;7.45;;
20073;SDS011;10197;54.282;10.078;2023-04-29T00:35:05;10.60;;;7.40;;
20073;SDS011;10197;54.282;10.078;2023-04-29T00:37:32;10.10;;;7.65;;
20073;SDS011;10197;54.282;10.078;2023-04-29T00:40:00;11.00;;;7.30;;
20073;SDS011;10197;54.282;10.078;2023-04-29T00:42:26;12.77;;;7.75;;
20073;SDS011;10197;54.282;10.078;2023-04-29T00:44:54;11.75;;;7.72;;
20073;SDS011;10197;54.282;10.078;2023-04-29T00:47:22;9.63;;;7.53;;
20073;SDS011;10197;54.282;10.078;2023-04-29T00:49:50;12.93;;;7.88;;
20073;SDS011;10197;54.282;10.078;2023-04-29T00:52:17;11.75;;;8.00;;
20073;SDS011;10197;54.282;10.078;2023-04-29T00:54:44;14.30;;;7.43;;
20073;SDS011;10197;54.282;10.078;2023-04-29T00:57:11;13.40;;;7.75;;
20073;SDS011;10197;54.282;10.078;2023-04-29T00:59:38;9.57;;;7.03;;
20073;SDS011;10197;54.282;10.078;2023-04-29T01:02:05;9.50;;;7.18;;
20073;SDS011;10197;54.282;10.078;2023-04-29T01:04:37;10.07;;;7.22;;
20073;SDS011;10197;54.282;10.078;2023-04-29T01:07:33;9.93;;;7.32;;
20073;SDS011;10197;54.282;10.078;2023-04-29T01:10:08;10.20;;;7.90;;
20073;SDS011;10197;54.282;10.078;2023-04-29T01:12:38;11.90;;;7.65;;
20073;SDS011;10197;54.282;10.078;2023-04-29T01:15:09;12.55;;;7.95;;
20073;SDS011;10197;54.282;10.078;2023-04-29T01:17:43;10.90;;;8.27;;
20073;SDS011;10197;54.282;10.078;2023-04-29T01:20:11;11.77;;;8.13;;
20073;SDS011;10197;54.282;10.078;2023-04-29T01:22:40;13.77;;;8.07;;
20073;SDS011;10197;54.282;10.078;2023-04-29T01:25:09;10.07;;;8.02;;
20073;SDS011;10197;54.282;10.078;2023-04-29T01:28:03;9.77;;;7.68;;
20073;SDS011;10197;54.282;10.078;2023-04-29T01:30:34;12.27;;;7.43;;
20073;SDS011;10197;54.282;10.078;2023-04-29T01:33:08;11.70;;;7.63;;
20073;SDS011;10197;54.282;10.078;2023-04-29T01:35:44;7.72;;;6.90;;
20073;SDS011;10197;54.282;10.078;2023-04-29T01:38:17;12.18;;;7.85;;
20073;SDS011;10197;54.282;10.078;2023-04-29T01:40:56;9.73;;;7.00;;
20073;SDS011;10197;54.282;10.078;2023-04-29T01:43:27;10.60;;;6.68;;
20073;SDS011;10197;54.282;10.078;2023-04-29T01:45:58;11.35;;;7.25;;
20073;SDS011;10197;54.282;10.078;2023-04-29T01:48:26;10.57;;;6.85;;
20073;SDS011;10197;54.282;10.078;2023-04-29T01:50:54;10.23;;;6.60;;
20073;SDS011;10197;54.282;10.078;2023-04-29T01:53:21;11.23;;;6.68;;
20073;SDS011;10197;54.282;10.078;2023-04-29T01:55:48;9.57;;;6.75;;
20073;SDS011;10197;54.282;10.078;2023-04-29T01:58:23;8.48;;;6.53;;
20073;SDS011;10197;54.282;10.078;2023-04-29T02:01:08;7.65;;;5.55;;
20073;SDS011;10197;54.282;10.078;2023-04-29T02:03:36;9.30;;;6.35;;
20073;SDS011;10197;54.282;10.078;2023-04-29T02:06:07;7.75;;;5.97;;
20073;SDS011;10197;54.282;10.078;2023-04-29T02:08:35;9.90;;;6.00;;
20073;SDS011;10197;54.282;10.078;2023-04-29T02:11:02;7.15;;;6.40;;
20073;SDS011;10197;54.282;10.078;2023-04-29T02:13:39;9.23;;;6.55;;
20073;SDS011;10197;54.282;10.078;2023-04-29T02:16:07;9.07;;;6.90;;
20073;SDS011;10197;54.282;10.078;2023-04-29T02:18:36;9.00;;;6.65;;
20073;SDS011;10197;54.282;10.078;2023-04-29T02:21:04;9.15;;;6.57;;
20073;SDS011;10197;54.282;10.078;2023-04-29T02:23:33;8.73;;;6.50;;
20073;SDS011;10197;54.282;10.078;2023-04-29T02:26:00;9.73;;;7.43;;
20073;SDS011;10197;54.282;10.078;2023-04-29T02:28:31;8.20;;;6.63;;
20073;SDS011;10197;54.282;10.078;2023-04-29T02:31:00;9.15;;;7.25;;
20073;SDS011;10197;54.282;10.078;2023-04-29T02:33:29;9.93;;;6.72;;
20073;SDS011;10197;54.282;10.078;2023-04-29T02:35:57;9.48;;;7.20;;
20073;SDS011;10197;54.282;10.078;2023-04-29T02:38:24;10.27;;;6.32;;
20073;SDS011;10197;54.282;10.078;2023-04-29T02:40:52;8.35;;;6.32;;
20073;SDS011;10197;54.282;10.078;2023-04-29T02:43:20;8.65;;;6.22;;
20073;SDS011;10197;54.282;10.078;2023-04-29T02:45:47;10.30;;;7.30;;
20073;SDS011;10197;54.282;10.078;2023-04-29T02:48:16;9.60;;;6.75;;
20073;SDS011;10197;54.282;10.078;2023-04-29T02:50:43;9.07;;;7.30;;
20073;SDS011;10197;54.282;10.078;2023-04-29T02:53:10;13.30;;;7.25;;
20073;SDS011;10197;54.282;10.078;2023-04-29T02:55:37;10.27;;;7.43;;
20073;SDS011;10197;54.282;10.078;2023-04-29T02:58:07;12.50;;;7.63;;
20073;SDS011;10197;54.282;10.078;2023-04-29T03:00:34;10.48;;;7.45;;
20073;SDS011;10197;54.282;10.078;2023-04-29T03:03:01;12.60;;;7.32;;
20073;SDS011;10197;54.282;10.078;2023-04-29T03:05:30;10.63;;;8.35;;
20073;SDS011;10197;54.282;10.078;2023-04-29T03:07:57;9.85;;;7.43;;
20073;SDS011;10197;54.282;10.078;2023-04-29T03:10:24;9.13;;;7.15;;
20073;SDS011;10197;54.282;10.078;2023-04-29T03:12:51;10.30;;;7.15;;
20073;SDS011;10197;54.282;10.078;2023-04-29T03:15:18;10.43;;;7.13;;
20073;SDS011;10197;54.282;10.078;2023-04-29T03:17:45;11.40;;;7.82;;
20073;SDS011;10197;54.282;10.078;2023-04-29T03:20:12;11.10;;;7.18;;
20073;SDS011;10197;54.282;10.078;2023-04-29T03:22:40;10.20;;;7.82;;
20073;SDS011;10197;54.282;10.078;2023-04-29T03:25:09;9.52;;;7.55;;
20073;SDS011;10197;54.282;10.078;2023-04-29T03:27:37;11.73;;;7.72;;
20073;SDS011;10197;54.282;10.078;2023-04-29T03:30:05;9.50;;;8.13;;
20073;SDS011;10197;54.282;10.078;2023-04-29T03:32:35;12.65;;;8.60;;
20073;SDS011;10197;54.282;10.078;2023-04-29T03:35:02;9.80;;;7.85;;
20073;SDS011;10197;54.282;10.078;2023-04-29T03:37:45;10.25;;;8.00;;
20073;SDS011;10197;54.282;10.078;2023-04-29T03:40:20;12.77;;;8.23;;
20073;SDS011;10197;54.282;10.078;2023-04-29T03:42:48;10.75;;;7.90;;
20073;SDS011;10197;54.282;10.078;2023-04-29T03:45:16;13.40;;;7.47;;
20073;SDS011;10197;54.282;10.078;2023-04-29T03:47:43;12.82;;;8.35;;
20073;SDS011;10197;54.282;10.078;2023-04-29T03:50:10;12.02;;;7.95;;
20073;SDS011;10197;54.282;10.078;2023-04-29T03:52:38;12.65;;;7.32;;
20073;SDS011;10197;54.282;10.078;2023-04-29T03:55:12;14.05;;;8.20;;
20073;SDS011;10197;54.282;10.078;2023-04-29T03:57:39;14.40;;;7.78;;
20073;SDS011;10197;54.282;10.078;2023-04-29T04:00:06;11.40;;;7.53;;
20073;SDS011;10197;54.282;10.078;2023-04-29T04:02:46;12.23;;;7.90;;
20073;SDS011;10197;54.282;10.078;2023-04-29T04:05:14;12.85;;;7.95;;
20073;SDS011;10197;54.282;10.078;2023-04-29T04:07:47;13.15;;;7.22;;
20073;SDS011;10197;54.282;10.078;2023-04-29T04:10:41;10.27;;;8.00;;
20073;SDS011;10197;54.282;10.078;2023-04-29T04:13:33;12.57;;;7.82;;
20073;SDS011;10197;54.282;10.078;2023-04-29T04:16:00;11.80;;;7.38;;
20073;SDS011;10197;54.282;10.078;2023-04-29T04:18:28;12.95;;;7.95;;
20073;SDS011;10197;54.282;10.078;2023-04-29T04:20:55;12.43;;;7.30;;
20073;SDS011;10197;54.282;10.078;2023-04-29T04:23:24;11.68;;;7.65;;
20073;SDS011;10197;54.282;10.078;2023-04-29T04:25:53;13.02;;;7.18;;
20073;SDS011;10197;54.282;10.078;2023-04-29T04:28:47;15.18;;;8.27;;
20073;SDS011;10197;54.282;10.078;2023-04-29T04:31:25;12.20;;;8.32;;
20073;SDS011;10197;54.282;10.078;2023-04-29T04:33:52;12.30;;;7.57;;
20073;SDS011;10197;54.282;10.078;2023-04-29T04:36:20;11.57;;;7.53;;
20073;SDS011;10197;54.282;10.078;2023-04-29T04:38:48;11.07;;;7.68;;
20073;SDS011;10197;54.282;10.078;2023-04-29T04:41:16;10.52;;;7.22;;
20073;SDS011;10197;54.282;10.078;2023-04-29T04:43:45;10.50;;;7.20;;
20073;SDS011;10197;54.282;10.078;2023-04-29T04:46:28;8.57;;;6.68;;
20073;SDS011;10197;54.282;10.078;2023-04-29T04:49:08;12.75;;;7.78;;
20073;SDS011;10197;54.282;10.078;2023-04-29T04:51:42;10.05;;;7.22;;
20073;SDS011;10197;54.282;10.078;2023-04-29T04:54:10;12.68;;;7.78;;
20073;SDS011;10197;54.282;10.078;2023-04-29T04:56:40;10.65;;;7.95;;
20073;SDS011;10197;54.282;10.078;2023-04-29T04:59:06;10.13;;;7.05;;
20073;SDS011;10197;54.282;10.078;2023-04-29T05:01:35;12.57;;;7.93;;
20073;SDS011;10197;54.282;10.078;2023-04-29T05:04:02;11.80;;;7.75;;
20073;SDS011;10197;54.282;10.078;2023-04-29T05:06:30;11.88;;;7.22;;
20073;SDS011;10197;54.282;10.078;2023-04-29T05:08:57;12.05;;;8.23;;
20073;SDS011;10197;54.282;10.078;2023-04-29T05:11:24;10.65;;;7.93;;
20073;SDS011;10197;54.282;10.078;2023-04-29T05:14:11;10.82;;;7.60;;
20073;SDS011;10197;54.282;10.078;2023-04-29T05:16:38;10.25;;;7.78;;
20073;SDS011;10197;54.282;10.078;2023-04-29T05:19:05;11.00;;;7.53;;
20073;SDS011;10197;54.282;10.078;2023-04-29T05:21:36;10.60;;;8.07;;
20073;SDS011;10197;54.282;10.078;2023-04-29T05:24:04;13.65;;;7.53;;
20073;SDS011;10197;54.282;10.078;2023-04-29T05:26:31;10.27;;;7.72;;
20073;SDS011;10197;54.282;10.078;2023-04-29T05:29:00;14.77;;;7.95;;
20073;SDS011;10197;54.282;10.078;2023-04-29T05:31:32;9.98;;;7.30;;
20073;SDS011;10197;54.282;10.078;2023-04-29T05:34:02;13.65;;;7.55;;
20073;SDS011;10197;54.282;10.078;2023-04-29T05:36:29;12.02;;;7.40;;
20073;SDS011;10197;54.282;10.078;2023-04-29T05:38:56;12.13;;;8.10;;
20073;SDS011;10197;54.282;10.078;2023-04-29T05:41:24;10.30;;;7.53;;
20073;SDS011;10197;54.282;10.078;2023-04-29T05:43:57;11.20;;;7.85;;
20073;SDS011;10197;54.282;10.078;2023-04-29T05:46:23;10.02;;;7.28;;
20073;SDS011;10197;54.282;10.078;2023-04-29T05:48:52;10.80;;;7.80;;
20073;SDS011;10197;54.282;10.078;2023-04-29T05:51:20;11.82;;;8.20;;
20073;SDS011;10197;54.282;10.078;2023-04-29T05:53:47;10.60;;;8.05;;
20073;SDS011;10197;54.282;10.078;2023-04-29T05:56:14;13.52;;;8.77;;
20073;SDS011;10197;54.282;10.078;2023-04-29T05:58:42;12.65;;;8.43;;
20073;SDS011;10197;54.282;10.078;2023-04-29T06:01:09;13.95;;;8.70;;
20073;SDS011;10197;54.282;10.078;2023-04-29T06:03:37;10.27;;;7.35;;
20073;SDS011;10197;54.282;10.078;2023-04-29T06:06:24;9.80;;;7.25;;
20073;SDS011;10197;54.282;10.078;2023-04-29T06:09:07;14.80;;;8.70;;
20073;SDS011;10197;54.282;10.078;2023-04-29T06:11:34;12.55;;;8.63;;
20073;SDS011;10197;54.282;10.078;2023-04-29T06:14:01;10.52;;;7.60;;
20073;SDS011;10197;54.282;10.078;2023-04-29T06:16:28;12.15;;;8.23;;
20073;SDS011;10197;54.282;10.078;2023-04-29T06:18:55;13.73;;;8.85;;
20073;SDS011;10197;54.282;10.078;2023-04-29T06:21:22;10.63;;;7.28;;
20073;SDS011;10197;54.282;10.078;2023-04-29T06:23:52;10.55;;;8.38;;
20073;SDS011;10197;54.282;10.078;2023-04-29T06:26:20;11.77;;;8.18;;
20073;SDS011;10197;54.282;10.078;2023-04-29T06:28:47;12.75;;;8.80;;
20073;SDS011;10197;54.282;10.078;2023-04-29T06:31:14;12.13;;;7.82;;
20073;SDS011;10197;54.282;10.078;2023-04-29T06:33:41;12.00;;;8.60;;
20073;SDS011;10197;54.282;10.078;2023-04-29T06:36:08;14.13;;;8.45;;
20073;SDS011;10197;54.282;10.078;2023-04-29T06:38:55;10.63;;;7.72;;
20073;SDS011;10197;54.282;10.078;2023-04-29T06:41:34;11.05;;;7.78;;
20073;SDS011;10197;54.282;10.078;2023-04-29T06:44:21;11.80;;;7.35;;
20073;SDS011;10197;54.282;10.078;2023-04-29T06:46:58;12.40;;;8.02;;
20073;SDS011;10197;54.282;10.078;2023-04-29T06:49:38;12.43;;;7.57;;
20073;SDS011;10197;54.282;10.078;2023-04-29T06:52:05;10.10;;;6.90;;
20073;SDS011;10197;54.282;10.078;2023-04-29T06:54:33;10.07;;;7.00;;
20073;SDS011;10197;54.282;10.078;2023-04-29T06:57:00;12.52;;;7.00;;
20073;SDS011;10197;54.282;10.078;2023-04-29T06:59:27;9.70;;;7.03;;
20073;SDS011;10197;54.282;10.078;2023-04-29T07:01:54;10.13;;;7.63;;
20073;SDS011;10197;54.282;10.078;2023-04-29T07:04:21;10.02;;;6.72;;
20073;SDS011;10197;54.282;10.078;2023-04-29T07:06:48;10.48;;;7.50;;
20073;SDS011;10197;54.282;10.078;2023-04-29T07:09:15;12.60;;;6.70;;
20073;SDS011;10197;54.282;10.078;2023-04-29T07:11:43;11.07;;;7.43;;
20073;SDS011;10197;54.282;10.078;2023-04-29T07:14:10;11.32;;;7.28;;
20073;SDS011;10197;54.282;10.078;2023-04-29T07:16:37;10.98;;;7.50;;
20073;SDS011;10197;54.282;10.078;2023-04-29T07:19:08;11.73;;;8.48;;
20073;SDS011;10197;54.282;10.078;2023-04-29T07:21:35;16.58;;;7.75;;
20073;SDS011;10197;54.282;10.078;2023-04-29T07:24:03;14.32;;;8.40;;
20073;SDS011;10197;54.282;10.078;2023-04-29T07:26:31;12.07;;;7.60;;
20073;SDS011;10197;54.282;10.078;2023-04-29T07:28:59;17.60;;;8.38;;
20073;SDS011;10197;54.282;10.078;2023-04-29T07:31:28;14.00;;;8.30;;
20073;SDS011;10197;54.282;10.078;2023-04-29T07:33:55;13.27;;;8.75;;
20073;SDS011;10197;54.282;10.078;2023-04-29T07:36:22;14.30;;;7.28;;
20073;SDS011;10197;54.282;10.078;2023-04-29T07:38:49;10.02;;;8.18;;
20073;SDS011;10197;54.282;10.078;2023-04-29T07:41:16;12.70;;;7.82;;
20073;SDS011;10197;54.282;10.078;2023-04-29T07:43:43;11.60;;;7.00;;
20073;SDS011;10197;54.282;10.078;2023-04-29T07:46:12;9.95;;;7.28;;
20073;SDS011;10197;54.282;10.078;2023-04-29T07:48:39;10.73;;;7.68;;
20073;SDS011;10197;54.282;10.078;2023-04-29T07:51:06;10.50;;;7.95;;
20073;SDS011;10197;54.282;10.078;2023-04-29T07:53:34;12.40;;;8.50;;
20073;SDS011;10197;54.282;10.078;2023-04-29T07:56:03;12.73;;;8.57;;
20073;SDS011;10197;54.282;10.078;2023-04-29T07:58:31;8.73;;;7.82;;
20073;SDS011;10197;54.282;10.078;2023-04-29T08:01:03;10.85;;;7.50;;
20073;SDS011;10197;54.282;10.078;2023-04-29T08:03:32;11.43;;;8.13;;
20073;SDS011;10197;54.282;10.078;2023-04-29T08:06:00;9.80;;;7.70;;
20073;SDS011;10197;54.282;10.078;2023-04-29T08:08:27;10.38;;;7.53;;
20073;SDS011;10197;54.282;10.078;2023-04-29T08:10:55;8.88;;;6.70;;
20073;SDS011;10197;54.282;10.078;2023-04-29T08:13:22;13.13;;;7.90;;
20073;SDS011;10197;54.282;10.078;2023-04-29T08:15:49;10.93;;;6.47;;
20073;SDS011;10197;54.282;10.078;2023-04-29T08:18:16;12.25;;;7.70;;
20073;SDS011;10197;54.282;10.078;2023-04-29T08:20:45;10.07;;;6.88;;
20073;SDS011;10197;54.282;10.078;2023-04-29T08:23:13;10.43;;;6.97;;
20073;SDS011;10197;54.282;10.078;2023-04-29T08:25:40;11.18;;;7.28;;
20073;SDS011;10197;54.282;10.078;2023-04-29T08:28:08;9.95;;;7.45;;
20073;SDS011;10197;54.282;10.078;2023-04-29T08:30:36;9.77;;;7.38;;
20073;SDS011;10197;54.282;10.078;2023-04-29T08:33:05;11.77;;;7.30;;
20073;SDS011;10197;54.282;10.078;2023-04-29T08:35:32;10.35;;;7.18;;
20073;SDS011;10197;54.282;10.078;2023-04-29T08:38:03;10.52;;;6.88;;
20073;SDS011;10197;54.282;10.078;2023-04-29T08:40:35;10.55;;;7.47;;
20073;SDS011;10197;54.282;10.078;2023-04-29T08:43:02;8.30;;;6.68;;
20073;SDS011;10197;54.282;10.078;2023-04-29T08:45:30;10.02;;;7.00;;
20073;SDS011;10197;54.282;10.078;2023-04-29T08:47:59;8.48;;;7.57;;
20073;SDS011;10197;54.282;10.078;2023-04-29T08:50:27;8.68;;;6.85;;
20073;SDS011;10197;54.282;10.078;2023-04-29T08:52:56;10.35;;;7.38;;
20073;SDS011;10197;54.282;10.078;2023-04-29T08:55:24;8.93;;;6.82;;
20073;SDS011;10197;54.282;10.078;2023-04-29T08:57:52;8.18;;;6.68;;
20073;SDS011;10197;54.282;10.078;2023-04-29T09:00:20;10.43;;;7.22;;
20073;SDS011;10197;54.282;10.078;2023-04-29T09:02:48;10.63;;;7.13;;
20073;SDS011;10197;54.282;10.078;2023-04-29T09:05:16;8.65;;;6.88;;
20073;SDS011;10197;54.282;10.078;2023-04-29T09:07:43;12.00;;;7.50;;
20073;SDS011;10197;54.282;10.078;2023-04-29T09:10:11;12.32;;;7.70;;
20073;SDS011;10197;54.282;10.078;2023-04-29T09:12:40;11.25;;;6.90;;
20073;SDS011;10197;54.282;10.078;2023-04-29T09:15:07;8.68;;;6.63;;
20073;SDS011;10197;54.282;10.078;2023-04-29T09:17:42;9.52;;;7.13;;
20073;SDS011;10197;54.282;10.078;2023-04-29T09:20:26;16.73;;;8.40;;
20073;SDS011;10197;54.282;10.078;2023-04-29T09:22:53;9.60;;;7.90;;
20073;SDS011;10197;54.282;10.078;2023-04-29T09:25:21;9.02;;;6.68;;
20073;SDS011;10197;54.282;10.078;2023-04-29T09:27:50;11.40;;;8.50;;
20073;SDS011;10197;54.282;10.078;2023-04-29T09:30:17;12.38;;;8.93;;
20073;SDS011;10197;54.282;10.078;2023-04-29T09:32:45;10.82;;;7.93;;
20073;SDS011;10197;54.282;10.078;2023-04-29T09:35:22;12.70;;;9.15;;
20073;SDS011;10197;54.282;10.078;2023-04-29T09:37:50;11.93;;;8.32;;
20073;SDS011;10197;54.282;10.078;2023-04-29T09:40:27;13.38;;;8.05;;
20073;SDS011;10197;54.282;10.078;2023-04-29T09:42:57;10.75;;;8.00;;
20073;SDS011;10197;54.282;10.078;2023-04-29T09:45:31;10.30;;;7.22;;
20073;SDS011;10197;54.282;10.078;2023-04-29T09:48:01;12.30;;;9.00;;
20073;SDS011;10197;54.282;10.078;2023-04-29T09:50:29;13.85;;;8.98;;
20073;SDS011;10197;54.282;10.078;2023-04-29T09:52:56;10.60;;;8.45;;
20073;SDS011;10197;54.282;10.078;2023-04-29T09:55:23;13.82;;;8.80;;
20073;SDS011;10197;54.282;10.078;2023-04-29T09:57:51;10.65;;;7.88;;
20073;SDS011;10197;54.282;10.078;2023-04-29T10:00:19;14.20;;;9.65;;
20073;SDS011;10197;54.282;10.078;2023-04-29T10:02:46;12.30;;;9.25;;
20073;SDS011;10197;54.282;10.078;2023-04-29T10:05:15;11.52;;;8.32;;
20073;SDS011;10197;54.282;10.078;2023-04-29T10:07:42;12.38;;;8.43;;
20073;SDS011;10197;54.282;10.078;2023-04-29T10:10:11;10.60;;;7.68;;
20073;SDS011;10197;54.282;10.078;2023-04-29T10:12:39;11.60;;;8.55;;
20073;SDS011;10197;54.282;10.078;2023-04-29T10:15:08;11.02;;;7.50;;
20073;SDS011;10197;54.282;10.078;2023-04-29T10:17:42;11.32;;;7.85;;
20073;SDS011;10197;54.282;10.078;2023-04-29T10:20:12;10.90;;;7.68;;
20073;SDS011;10197;54.282;10.078;2023-04-29T10:22:42;9.00;;;7.13;;
20073;SDS011;10197;54.282;10.078;2023-04-29T10:25:11;10.18;;;7.82;;
20073;SDS011;10197;54.282;10.078;2023-04-29T10:27:39;13.32;;;9.10;;
20073;SDS011;10197;54.282;10.078;2023-04-29T10:30:10;9.73;;;7.65;;
20073;SDS011;10197;54.282;10.078;2023-04-29T10:32:38;11.48;;;7.70;;
20073;SDS011;10197;54.282;10.078;2023-04-29T10:35:08;11.57;;;6.80;;
20073;SDS011;10197;54.282;10.078;2023-04-29T10:37:35;15.18;;;8.00;;
20073;SDS011;10197;54.282;10.078;2023-04-29T10:40:06;11.88;;;7.65;;
20073;SDS011;10197;54.282;10.078;2023-04-29T10:42:41;12.43;;;8.05;;
20073;SDS011;10197;54.282;10.078;2023-04-29T10:45:16;8.85;;;7.45;;
20073;SDS011;10197;54.282;10.078;2023-04-29T10:53:26;11.57;;;8.38;;
20073;SDS011;10197;54.282;10.078;2023-04-29T10:55:55;9.95;;;8.38;;
20073;SDS011;10197;54.282;10.078;2023-04-29T10:58:42;10.23;;;8.02;;
20073;SDS011;10197;54.282;10.078;2023-04-29T11:01:11;11.70;;;9.55;;
20073;SDS011;10197;54.282;10.078;2023-04-29T11:03:50;13.68;;;8.52;;
20073;SDS011;10197;54.282;10.078;2023-04-29T11:06:19;9.38;;;7.60;;
20073;SDS011;10197;54.282;10.078;2023-04-29T11:08:58;12.60;;;8.15;;
20073;SDS011;10197;54.282;10.078;2023-04-29T11:11:26;12.20;;;8.13;;
20073;SDS011;10197;54.282;10.078;2023-04-29T11:13:57;10.55;;;7.75;;
20073;SDS011;10197;54.282;10.078;2023-04-29T11:16:25;9.20;;;6.80;;
20073;SDS011;10197;54.282;10.078;2023-04-29T11:19:04;8.98;;;6.60;;
20073;SDS011;10197;54.282;10.078;2023-04-29T11:21:32;8.48;;;6.20;;
20073;SDS011;10197;54.282;10.078;2023-04-29T11:24:00;9.10;;;6.78;;
20073;SDS011;10197;54.282;10.078;2023-04-29T11:26:27;14.07;;;6.40;;
20073;SDS011;10197;54.282;10.078;2023-04-29T11:28:53;8.07;;;6.00;;
20073;SDS011;10197;54.282;10.078;2023-04-29T11:31:25;7.45;;;5.68;;
20073;SDS011;10197;54.282;10.078;2023-04-29T11:33:53;8.13;;;6.43;;
20073;SDS011;10197;54.282;10.078;2023-04-29T11:36:21;11.95;;;7.05;;
20073;SDS011;10197;54.282;10.078;2023-04-29T11:38:48;7.18;;;5.90;;
20073;SDS011;10197;54.282;10.078;2023-04-29T11:41:15;8.38;;;7.28;;
20073;SDS011;10197;54.282;10.078;2023-04-29T11:43:44;8.93;;;6.90;;
20073;SDS011;10197;54.282;10.078;2023-04-29T11:46:12;11.23;;;8.13;;
20073;SDS011;10197;54.282;10.078;2023-04-29T11:48:44;11.05;;;6.57;;
20073;SDS011;10197;54.282;10.078;2023-04-29T11:51:12;10.55;;;6.75;;
20073;SDS011;10197;54.282;10.078;2023-04-29T11:53:41;9.45;;;6.70;;
20073;SDS011;10197;54.282;10.078;2023-04-29T11:56:08;8.07;;;6.22;;
20073;SDS011;10197;54.282;10.078;2023-04-29T11:58:35;11.40;;;6.22;;
20073;SDS011;10197;54.282;10.078;2023-04-29T12:01:02;8.80;;;6.80;;
20073;SDS011;10197;54.282;10.078;2023-04-29T12:03:30;7.45;;;6.15;;
20073;SDS011;10197;54.282;10.078;2023-04-29T12:05:57;8.30;;;6.28;;
20073;SDS011;10197;54.282;10.078;2023-04-29T12:08:25;5.72;;;5.15;;
20073;SDS011;10197;54.282;10.078;2023-04-29T12:10:54;6.90;;;5.35;;
20073;SDS011;10197;54.282;10.078;2023-04-29T12:13:22;6.50;;;4.50;;
20073;SDS011;10197;54.282;10.078;2023-04-29T12:15:50;7.53;;;4.57;;
20073;SDS011;10197;54.282;10.078;2023-04-29T12:18:18;5.22;;;4.57;;
20073;SDS011;10197;54.282;10.078;2023-04-29T12:20:47;5.50;;;4.38;;
20073;SDS011;10197;54.282;10.078;2023-04-29T12:23:16;5.15;;;3.78;;
20073;SDS011;10197;54.282;10.078;2023-04-29T12:25:46;5.05;;;4.10;;
20073;SDS011;10197;54.282;10.078;2023-04-29T12:28:16;5.70;;;3.63;;
20073;SDS011;10197;54.282;10.078;2023-04-29T12:30:43;6.05;;;3.30;;
20073;SDS011;10197;54.282;10.078;2023-04-29T12:33:14;4.10;;;3.38;;
20073;SDS011;10197;54.282;10.078;2023-04-29T12:35:41;5.50;;;3.70;;
20073;SDS011;10197;54.282;10.078;2023-04-29T12:38:08;5.32;;;3.53;;
20073;SDS011;10197;54.282;10.078;2023-04-29T12:40:38;5.00;;;3.30;;
20073;SDS011;10197;54.282;10.078;2023-04-29T12:43:09;5.13;;;3.30;;
20073;SDS011;10197;54.282;10.078;2023-04-29T12:45:37;4.88;;;2.63;;
20073;SDS011;10197;54.282;10.078;2023-04-29T12:48:04;3.40;;;3.10;;
20073;SDS011;10197;54.282;10.078;2023-04-29T12:50:32;5.75;;;3.60;;
20073;SDS011;10197;54.282;10.078;2023-04-29T12:53:01;3.45;;;3.03;;
20073;SDS011;10197;54.282;10.078;2023-04-29T12:55:28;4.45;;;3.00;;
20073;SDS011;10197;54.282;10.078;2023-04-29T12:58:03;2.78;;;2.33;;
20073;SDS011;10197;54.282;10.078;2023-04-29T13:00:32;3.05;;;2.40;;
20073;SDS011;10197;54.282;10.078;2023-04-29T13:03:02;3.17;;;2.78;;
20073;SDS011;10197;54.282;10.078;2023-04-29T13:05:29;4.35;;;2.55;;
20073;SDS011;10197;54.282;10.078;2023-04-29T13:07:57;4.18;;;2.40;;
20073;SDS011;10197;54.282;10.078;2023-04-29T13:10:23;4.03;;;2.60;;
20073;SDS011;10197;54.282;10.078;2023-04-29T13:12:52;3.10;;;2.80;;
20073;SDS011;10197;54.282;10.078;2023-04-29T13:15:19;3.00;;;2.25;;
20073;SDS011;10197;54.282;10.078;2023-04-29T13:17:47;3.05;;;2.05;;
20073;SDS011;10197;54.282;10.078;2023-04-29T13:20:15;2.05;;;1.80;;
20073;SDS011;10197;54.282;10.078;2023-04-29T13:22:42;1.88;;;1.50;;
20073;SDS011;10197;54.282;10.078;2023-04-29T13:25:09;2.35;;;1.20;;
20073;SDS011;10197;54.282;10.078;2023-04-29T13:27:37;3.17;;;1.60;;
20073;SDS011;10197;54.282;10.078;2023-04-29T13:30:05;1.83;;;1.30;;
20073;SDS011;10197;54.282;10.078;2023-04-29T13:32:33;1.52;;;1.42;;
20073;SDS011;10197;54.282;10.078;2023-04-29T13:35:00;2.33;;;1.30;;
20073;SDS011;10197;54.282;10.078;2023-04-29T13:37:28;1.70;;;1.40;;
20073;SDS011;10197;54.282;10.078;2023-04-29T13:39:56;2.85;;;1.40;;
20073;SDS011;10197;54.282;10.078;2023-04-29T13:42:23;2.85;;;1.50;;
20073;SDS011;10197;54.282;10.078;2023-04-29T13:44:50;2.50;;;1.30;;
20073;SDS011;10197;54.282;10.078;2023-04-29T13:47:17;1.85;;;1.50;;
20073;SDS011;10197;54.282;10.078;2023-04-29T13:49:44;5.38;;;1.90;;
20073;SDS011;10197;54.282;10.078;2023-04-29T13:52:11;2.92;;;1.80;;
20073;SDS011;10197;54.282;10.078;2023-04-29T13:54:39;2.90;;;1.83;;
20073;SDS011;10197;54.282;10.078;2023-04-29T13:57:06;2.45;;;1.90;;
20073;SDS011;10197;54.282;10.078;2023-04-29T13:59:34;3.42;;;1.90;;
20073;SDS011;10197;54.282;10.078;2023-04-29T14:02:01;2.40;;;1.80;;
20073;SDS011;10197;54.282;10.078;2023-04-29T14:04:29;2.63;;;2.38;;
20073;SDS011;10197;54.282;10.078;2023-04-29T14:06:56;2.70;;;2.00;;
20073;SDS011;10197;54.282;10.078;2023-04-29T14:09:23;3.35;;;2.10;;
20073;SDS011;10197;54.282;10.078;2023-04-29T14:11:51;2.08;;;1.60;;
20073;SDS011;10197;54.282;10.078;2023-04-29T14:14:18;3.97;;;2.30;;
20073;SDS011;10197;54.282;10.078;2023-04-29T14:16:45;2.58;;;1.60;;
20073;SDS011;10197;54.282;10.078;2023-04-29T14:19:13;4.68;;;1.92;;
20073;SDS011;10197;54.282;10.078;2023-04-29T14:21:39;4.22;;;1.83;;
20073;SDS011;10197;54.282;10.078;2023-04-29T14:24:06;4.05;;;2.15;;
20073;SDS011;10197;54.282;10.078;2023-04-29T14:26:34;3.70;;;1.85;;
20073;SDS011;10197;54.282;10.078;2023-04-29T14:29:02;4.65;;;2.20;;
20073;SDS011;10197;54.282;10.078;2023-04-29T14:31:30;4.68;;;2.10;;
20073;SDS011;10197;54.282;10.078;2023-04-29T14:34:00;4.80;;;2.42;;
20073;SDS011;10197;54.282;10.078;2023-04-29T14:36:26;5.10;;;2.60;;
20073;SDS011;10197;54.282;10.078;2023-04-29T14:38:53;3.20;;;2.28;;
20073;SDS011;10197;54.282;10.078;2023-04-29T14:41:20;4.60;;;2.50;;
20073;SDS011;10197;54.282;10.078;2023-04-29T14:43:47;6.38;;;2.40;;